Time;durP1;ratioP1;P1;durP2;ratioP2;P2;SDS_P1;SDS_P2;PMS_P1;PMS_P2;Temp;Humidity;BMP_temperature;BMP_pressure;BME280_temperature;BME280_humidity;BME280_pressure;Samples;Min_cycle;Max_cycle;Signal;HPM_P1;HPM_P2
2023/10/30 00:11:36;;;;;;;14.40;6.10;;;;;;;15.06;100.00;99050.52;676316;1263;139396;-81
2023/10/30 00:26:39;;;;;;;15.00;6.20;;;;;;;14.97;100.00;99036.58;681699;1265;139617;-80
2023/10/30 00:41:43;;;;;;;17.60;9.90;;;;;;;15.10;100.00;99028.67;677624;1259;139834;-80
2023/10/30 00:56:46;;;;;;;8.50;4.90;;;;;;;15.21;100.00;99009.80;676324;1259;139609;-81
2023/10/30 01:11:50;;;;;;;14.00;5.40;;;;;;;15.29;100.00;99006.33;676229;1265;139818;-80
2023/10/30 01:26:53;;;;;;;10.60;5.20;;;;;;;15.06;100.00;99012.20;681811;1266;139548;-81
2023/10/30 01:41:57;;;;;;;11.70;5.60;;;;;;;14.92;100.00;99032.48;678411;1259;139215;-81
2023/10/30 01:57:00;;;;;;;14.60;6.90;;;;;;;14.97;100.00;99045.42;672626;1264;141331;-80
2023/10/30 02:12:04;;;;;;;11.90;6.20;;;;;;;14.76;100.00;99041.75;674472;1265;139876;-80
2023/10/30 02:27:09;;;;;;;13.80;6.90;;;;;;;14.71;100.00;99049.33;671325;1264;139524;-79
2023/10/30 02:42:13;;;;;;;13.60;7.20;;;;;;;14.53;100.00;99056.02;679888;1264;139342;-80
2023/10/30 02:57:16;;;;;;;10.90;6.10;;;;;;;14.64;100.00;99068.01;680420;1263;138892;-80
2023/10/30 03:12:19;;;;;;;10.20;5.50;;;;;;;14.68;100.00;99080.38;679511;1265;139413;-80
2023/10/30 03:27:23;;;;;;;9.00;5.70;;;;;;;14.51;100.00;99086.81;671926;1263;139605;-80
2023/10/30 03:42:27;;;;;;;10.70;5.50;;;;;;;14.38;100.00;99105.00;675813;1264;139500;-79
2023/10/30 03:57:30;;;;;;;5.90;4.50;;;;;;;14.37;100.00;99113.67;674041;1265;139948;-81
2023/10/30 04:12:34;;;;;;;8.60;4.60;;;;;;;14.31;100.00;99115.15;669681;1265;139048;-80
2023/10/30 04:27:37;;;;;;;9.70;6.70;;;;;;;14.29;100.00;99120.86;673094;1265;139493;-81
2023/10/30 04:42:41;;;;;;;24.40;11.30;;;;;;;14.21;100.00;99133.11;674650;1278;139688;-81
2023/10/30 04:57:44;;;;;;;17.90;11.70;;;;;;;14.00;100.00;99139.78;677458;1264;139188;-81
2023/10/30 05:12:47;;;;;;;11.80;7.40;;;;;;;13.80;100.00;99124.59;679337;1265;139267;-81
2023/10/30 05:48:32;;;;;;;26.50;17.40;;;;;;;13.53;100.00;99157.25;660691;1290;544931;-79
2023/10/30 06:03:36;;;;;;;15.70;11.00;;;;;;;13.36;100.00;99177.55;670438;1273;139035;-78
2023/10/30 06:18:39;;;;;;;18.30;11.80;;;;;;;13.26;100.00;99188.03;672250;1270;139663;-79
2023/10/30 06:33:44;;;;;;;11.00;6.70;;;;;;;13.40;100.00;99213.63;675265;1263;138924;-80
2023/10/30 06:48:48;;;;;;;10.20;7.00;;;;;;;13.52;100.00;99244.98;677336;1263;139013;-79
2023/10/30 07:03:51;;;;;;;24.20;10.70;;;;;;;13.62;100.00;99268.32;669241;1265;138723;-80
2023/10/30 07:18:56;;;;;;;16.50;8.60;;;;;;;13.70;100.00;99261.43;672536;1265;138931;-79
2023/10/30 07:34:00;;;;;;;11.70;6.10;;;;;;;14.57;100.00;99282.71;672618;1265;138763;-82
2023/10/30 07:49:04;;;;;;;13.50;7.00;;;;;;;17.51;96.48;99290.77;676395;1262;138863;-84
2023/10/30 08:04:09;;;;;;;26.90;18.50;;;;;;;18.09;90.12;99291.56;671788;1266;138859;-83
2023/10/30 08:19:13;;;;;;;8.90;5.50;;;;;;;16.83;91.70;99291.44;678651;1263;139670;-84
2023/10/30 08:34:16;;;;;;;6.10;4.10;;;;;;;17.78;90.32;99322.66;674207;1264;138834;-81
2023/10/30 08:49:19;;;;;;;10.30;7.10;;;;;;;19.78;83.55;99325.88;679595;1265;138988;-80
2023/10/30 09:04:22;;;;;;;9.80;4.80;;;;;;;18.85;79.51;99345.79;673554;1266;139233;-81
2023/10/30 09:19:27;;;;;;;7.60;4.60;;;;;;;19.55;79.79;99382.04;672356;1261;139114;-83
2023/10/30 09:34:30;;;;;;;8.60;4.00;;;;;;;21.58;73.02;99413.61;673170;1262;138241;-83
2023/10/30 09:49:35;;;;;;;6.20;3.20;;;;;;;21.97;67.04;99404.14;670357;1265;138953;-82
2023/10/30 10:04:40;;;;;;;8.10;4.20;;;;;;;22.56;66.33;99412.27;669561;1262;138185;-84
2023/10/30 10:19:47;;;;;;;16.80;10.00;;;;;;;22.75;65.64;99431.79;671740;1265;138020;-83
2023/10/30 10:34:50;;;;;;;7.30;3.20;;;;;;;21.48;66.65;99463.54;676355;1265;139132;-82
2023/10/30 10:49:56;;;;;;;3.40;2.60;;;;;;;20.21;68.43;99464.27;671177;1270;138240;-83
2023/10/30 11:05:00;;;;;;;8.00;3.00;;;;;;;18.85;70.65;99448.95;673580;1262;138345;-83
2023/10/30 11:20:10;;;;;;;26.70;16.80;;;;;;;18.23;74.00;99464.60;677213;1262;138699;-83
2023/10/30 11:35:14;;;;;;;6.10;3.00;;;;;;;18.28;75.04;99464.17;674878;1263;139558;-84
2023/10/30 11:50:18;;;;;;;6.60;3.40;;;;;;;18.85;73.95;99444.34;676493;1262;138760;-84
2023/10/30 12:05:21;;;;;;;7.70;3.30;;;;;;;19.17;72.87;99465.49;676591;1260;138802;-84
2023/10/30 12:20:25;;;;;;;6.50;2.80;;;;;;;19.07;72.15;99443.08;673582;1261;138197;-83
2023/10/30 12:35:29;;;;;;;7.60;4.50;;;;;;;19.00;71.95;99434.27;674935;1261;139030;-83
2023/10/30 12:50:32;;;;;;;11.30;4.20;;;;;;;18.56;73.45;99421.70;674859;1262;138627;-82
2023/10/30 13:05:36;;;;;;;7.40;3.00;;;;;;;18.40;75.14;99410.50;673698;1262;139639;-82
2023/10/30 13:20:39;;;;;;;7.20;3.00;;;;;;;18.55;75.19;99429.70;675802;1262;139339;-81
2023/10/30 13:35:43;;;;;;;6.20;5.10;;;;;;;18.33;75.46;99439.55;673962;1274;139998;-79
2023/10/30 13:50:47;;;;;;;9.10;2.80;;;;;;;17.91;76.82;99436.79;673776;1265;139165;-80
2023/10/30 14:05:53;;;;;;;72.70;39.50;;;;;;;17.64;78.27;99449.56;669755;1259;139017;-80
2023/10/30 14:20:56;;;;;;;25.90;10.80;;;;;;;17.42;80.25;99455.64;675988;1262;139043;-81
2023/10/30 14:36:00;;;;;;;23.10;15.50;;;;;;;17.32;81.63;99454.84;674917;1262;139202;-80
2023/10/30 14:51:04;;;;;;;30.90;16.90;;;;;;;17.11;83.15;99458.55;671305;1265;139371;-80
2023/10/30 15:06:07;;;;;;;16.80;9.30;;;;;;;16.78;84.62;99456.52;673600;1262;139944;-83
2023/10/30 15:21:11;;;;;;;21.50;11.50;;;;;;;16.29;86.84;99455.31;677026;1275;139849;-80
2023/10/30 15:36:14;;;;;;;20.10;11.80;;;;;;;16.14;87.90;99456.02;672610;1262;139312;-83
2023/10/30 15:51:18;;;;;;;27.80;14.40;;;;;;;16.01;88.26;99457.86;675050;1265;138646;-81
2023/10/30 16:06:24;;;;;;;21.30;10.60;;;;;;;15.64;89.75;99454.77;675737;1275;139570;-81
2023/10/30 16:21:27;;;;;;;21.80;9.80;;;;;;;15.39;90.53;99449.36;672618;1265;139442;-82
2023/10/30 16:36:33;;;;;;;14.80;6.70;;;;;;;15.46;90.21;99451.22;674418;1272;138982;-82
2023/10/30 16:51:36;;;;;;;10.60;6.70;;;;;;;15.24;91.67;99468.21;674257;1263;138927;-83
2023/10/30 17:06:40;;;;;;;14.70;9.20;;;;;;;15.28;91.89;99479.89;676804;1264;139359;-83
2023/10/30 17:21:43;;;;;;;33.00;20.50;;;;;;;15.34;92.18;99464.35;673080;1265;139591;-82
2023/10/30 17:36:48;;;;;;;14.10;7.60;;;;;;;15.21;94.72;99457.46;677167;1269;139279;-83
2023/10/30 17:51:54;;;;;;;19.10;9.80;;;;;;;15.10;95.93;99442.98;674007;1263;164390;-83
2023/10/30 18:06:58;;;;;;;13.30;9.40;;;;;;;15.45;94.42;99435.91;672524;1262;139057;-82
2023/10/30 18:22:02;;;;;;;16.80;10.00;;;;;;;15.39;93.97;99422.11;680741;1262;139206;-83
2023/10/30 18:37:06;;;;;;;10.90;6.50;;;;;;;15.22;95.49;99408.62;677092;1262;139486;-82
2023/10/30 18:52:09;;;;;;;17.70;10.90;;;;;;;15.12;96.16;99403.27;677788;1267;138897;-83
2023/10/30 19:07:13;;;;;;;22.60;12.00;;;;;;;15.15;96.50;99401.53;675025;1265;139284;-82
2023/10/30 19:28:14;;;;;;;23.30;12.50;;;;;;;15.01;98.45;99387.02;659885;1295;544886;-81
2023/10/30 19:43:17;;;;;;;18.20;9.80;;;;;;;15.15;97.67;99369.52;677270;1279;139574;-84
2023/10/30 19:58:20;;;;;;;18.70;9.50;;;;;;;14.99;98.04;99357.98;668706;1269;138446;-82
2023/10/30 20:13:25;;;;;;;28.50;13.40;;;;;;;14.76;99.09;99349.84;674731;1275;139765;-82
2023/10/30 20:28:29;;;;;;;20.10;10.70;;;;;;;14.57;99.82;99348.97;671757;1271;138851;-81
2023/10/30 20:43:32;;;;;;;16.50;8.90;;;;;;;14.80;99.97;99345.38;673130;1276;139190;-82
2023/10/30 20:58:36;;;;;;;14.10;8.00;;;;;;;14.86;99.99;99324.44;671991;1273;139159;-82
2023/10/30 21:13:40;;;;;;;11.20;7.30;;;;;;;14.95;99.70;99293.41;671869;1272;139831;-82
2023/10/30 21:28:44;;;;;;;14.80;9.10;;;;;;;14.71;99.66;99268.80;672723;1272;139180;-81
2023/10/30 21:43:49;;;;;;;60.10;27.60;;;;;;;14.72;99.68;99247.24;671923;1272;138803;-83
2023/10/30 21:58:54;;;;;;;47.70;22.50;;;;;;;14.55;99.83;99224.10;675897;1263;139485;-82
2023/10/30 22:13:59;;;;;;;23.20;14.10;;;;;;;14.54;99.39;99203.99;676853;1265;139716;-82
2023/10/30 22:29:02;;;;;;;30.80;16.80;;;;;;;14.31;99.52;99190.20;677848;1262;139569;-82
2023/10/30 22:44:07;;;;;;;28.90;13.40;;;;;;;14.02;99.77;99174.38;676690;1265;138986;-83
2023/10/30 22:59:11;;;;;;;28.20;14.40;;;;;;;13.80;100.00;99146.37;675406;1262;139800;-83
2023/10/30 23:14:14;;;;;;;25.30;13.80;;;;;;;13.74;100.00;99115.60;676595;1264;139812;-83
2023/10/30 23:29:17;;;;;;;24.50;14.20;;;;;;;13.78;100.00;99088.52;675765;1263;139362;-82
2023/10/30 23:44:21;;;;;;;25.80;14.80;;;;;;;13.79;100.00;99065.49;677398;1263;138162;-83
2023/10/30 23:59:25;;;;;;;26.80;16.60;;;;;;;13.61;100.00;99043.48;672330;1258;140110;-81
